createdAt,value
2023-06-25T00:00:18.306Z,20.49
2023-06-25T00:03:49.493Z,20.55
2023-06-25T00:07:37.960Z,20.60
2023-06-25T00:11:26.364Z,20.63
2023-06-25T00:15:14.849Z,20.68
2023-06-25T00:19:03.291Z,20.68
2023-06-25T00:23:06.109Z,20.68
2023-06-25T00:26:56.120Z,20.70
2023-06-25T00:30:46.030Z,20.68
2023-06-25T00:34:34.133Z,20.55
2023-06-25T00:38:22.588Z,20.44
2023-06-25T00:42:11.052Z,20.40
2023-06-25T00:45:59.627Z,20.40
2023-06-25T00:49:40.872Z,20.37
2023-06-25T00:53:29.321Z,20.34
2023-06-25T00:57:17.762Z,20.32
2023-06-25T01:01:06.959Z,20.30
2023-06-25T01:04:58.493Z,20.31
2023-06-25T01:08:46.984Z,20.30
2023-06-25T01:12:44.591Z,20.29
2023-06-25T01:16:33.008Z,20.27
2023-06-25T01:20:21.784Z,20.23
2023-06-25T01:24:10.316Z,20.19
2023-06-25T01:27:58.792Z,20.15
2023-06-25T01:31:47.343Z,20.09
2023-06-25T01:35:36.220Z,20.05
2023-06-25T01:39:25.023Z,20.03
2023-06-25T01:43:13.645Z,20.00
2023-06-25T01:47:02.513Z,19.98
2023-06-25T01:50:50.967Z,19.95
2023-06-25T01:54:39.435Z,19.93
2023-06-25T01:58:27.868Z,19.91
2023-06-25T02:02:16.330Z,19.93
2023-06-25T02:05:53.501Z,19.95
2023-06-25T02:09:44.045Z,19.91
2023-06-25T02:13:32.645Z,19.89
2023-06-25T02:17:21.144Z,19.86
2023-06-25T02:21:12.729Z,19.83
2023-06-25T02:25:01.225Z,19.80
2023-06-25T02:28:50.131Z,19.81
2023-06-25T02:32:38.675Z,19.80
2023-06-25T02:36:27.185Z,19.81
2023-06-25T02:40:15.684Z,19.82
2023-06-25T02:44:04.200Z,19.85
2023-06-25T02:47:52.624Z,19.83
2023-06-25T02:51:41.063Z,19.81
2023-06-25T02:55:30.601Z,19.81
2023-06-25T02:59:19.125Z,19.79
2023-06-25T03:03:07.697Z,19.80
2023-06-25T03:06:56.277Z,19.84
2023-06-25T03:10:44.865Z,19.91
2023-06-25T03:14:35.483Z,19.99
2023-06-25T03:18:24.364Z,20.05
2023-06-25T03:22:12.871Z,20.11
2023-06-25T03:26:01.405Z,20.19
2023-06-25T03:29:49.851Z,20.24
2023-06-25T03:33:38.876Z,20.27
2023-06-25T03:37:27.326Z,20.30
2023-06-25T03:41:15.777Z,20.31
2023-06-25T03:45:04.205Z,20.30
2023-06-25T03:48:52.682Z,20.31
2023-06-25T03:52:41.116Z,20.31
2023-06-25T03:56:29.937Z,20.29
2023-06-25T04:00:18.492Z,20.24
2023-06-25T04:03:46.776Z,20.16
2023-06-25T04:07:35.333Z,20.11
2023-06-25T04:11:22.560Z,20.10
2023-06-25T04:15:10.971Z,20.06
2023-06-25T04:18:58.148Z,20.03
2023-06-25T04:22:46.596Z,19.96
2023-06-25T04:26:35.067Z,19.96
2023-06-25T04:30:25.332Z,20.03
2023-06-25T04:34:13.739Z,20.12
2023-06-25T04:38:02.311Z,20.24
2023-06-25T04:41:50.727Z,20.39
2023-06-25T04:45:41.256Z,20.54
2023-06-25T04:49:29.767Z,20.61
2023-06-25T04:53:18.416Z,20.67
2023-06-25T04:57:06.862Z,20.76
2023-06-25T05:00:55.587Z,20.86
2023-06-25T05:04:34.187Z,20.95
2023-06-25T05:08:22.623Z,21.06
2023-06-25T05:12:11.155Z,21.25
2023-06-25T05:15:42.411Z,21.49
2023-06-25T05:19:32.004Z,21.74
2023-06-25T05:23:14.217Z,21.97
2023-06-25T05:27:02.628Z,22.15
2023-06-25T05:30:51.108Z,22.24
2023-06-25T05:34:40.228Z,22.24
2023-06-25T05:38:28.762Z,22.27
2023-06-25T05:42:20.661Z,22.37
2023-06-25T05:46:09.328Z,22.47
2023-06-25T05:49:57.789Z,22.60
2023-06-25T05:53:46.327Z,22.77
2023-06-25T05:57:34.862Z,22.87
2023-06-25T06:01:23.505Z,22.99
2023-06-25T06:05:12.210Z,23.08
2023-06-25T06:09:00.622Z,23.07
2023-06-25T06:12:49.213Z,23.02
2023-06-25T06:16:37.653Z,23.04
2023-06-25T06:20:26.165Z,23.15
2023-06-25T06:24:14.707Z,23.28
2023-06-25T06:27:55.900Z,23.43
2023-06-25T06:31:44.685Z,23.56
2023-06-25T06:35:33.236Z,23.63
2023-06-25T06:39:21.974Z,23.68
2023-06-25T06:43:10.933Z,23.72
2023-06-25T06:46:59.864Z,23.79
2023-06-25T06:50:38.543Z,23.85
2023-06-25T06:54:27.026Z,23.91
2023-06-25T06:58:15.644Z,23.98
2023-06-25T07:02:04.422Z,24.08
2023-06-25T07:05:53.584Z,24.18
2023-06-25T07:09:42.885Z,24.29
2023-06-25T07:13:31.876Z,24.38
2023-06-25T07:17:20.401Z,24.43
2023-06-25T07:21:09.072Z,24.42
2023-06-25T07:24:57.693Z,24.44
2023-06-25T07:28:46.124Z,24.50
2023-06-25T07:32:35.103Z,24.67
2023-06-25T07:36:23.622Z,24.74
2023-06-25T07:40:12.114Z,24.69
2023-06-25T07:44:04.714Z,24.67
2023-06-25T07:48:00.188Z,24.76
2023-06-25T07:51:48.990Z,24.88
2023-06-25T07:55:45.381Z,24.88
2023-06-25T07:59:56.558Z,24.83
2023-06-25T08:03:46.378Z,24.69
2023-06-25T08:07:35.025Z,24.63
2023-06-25T08:11:23.959Z,24.63
2023-06-25T08:15:11.920Z,24.69
2023-06-25T08:19:00.909Z,24.81
2023-06-25T08:22:28.858Z,24.96
2023-06-25T08:26:23.512Z,25.07
2023-06-25T08:29:54.565Z,25.10
2023-06-25T08:33:43.037Z,25.08
2023-06-25T08:37:31.608Z,25.02
2023-06-25T08:41:20.086Z,24.96
2023-06-25T08:44:46.211Z,24.88
2023-06-25T08:48:37.505Z,24.80
2023-06-25T08:52:25.853Z,24.73
2023-06-25T08:56:01.410Z,24.63
2023-06-25T08:59:49.863Z,24.55
2023-06-25T09:03:38.398Z,24.50
2023-06-25T09:07:20.498Z,24.44
2023-06-25T09:11:09.090Z,24.45
2023-06-25T09:14:57.586Z,24.50
2023-06-25T09:18:46.106Z,24.53
2023-06-25T09:22:37.802Z,24.56
2023-06-25T09:26:29.302Z,24.64
2023-06-25T09:30:18.217Z,24.74
2023-06-25T09:34:12.496Z,24.90
2023-06-25T09:38:00.940Z,25.09
2023-06-25T09:41:49.849Z,25.39
2023-06-25T09:45:31.268Z,25.72
2023-06-25T09:49:19.808Z,25.98
2023-06-25T09:53:10.817Z,26.15
2023-06-25T09:56:59.281Z,26.34
2023-06-25T10:00:47.991Z,26.61
2023-06-25T10:04:36.311Z,26.79
2023-06-25T10:08:11.677Z,26.85
2023-06-25T10:12:00.192Z,26.71
2023-06-25T10:15:33.568Z,26.48
2023-06-25T10:19:12.880Z,26.39
2023-06-25T10:22:51.797Z,26.32
2023-06-25T10:26:41.977Z,26.14
2023-06-25T10:30:31.025Z,25.99
2023-06-25T10:34:19.868Z,25.96
2023-06-25T10:38:11.174Z,25.98
2023-06-25T10:41:21.074Z,25.98
2023-06-25T10:45:07.730Z,26.03
2023-06-25T10:48:47.906Z,26.05
2023-06-25T10:52:37.714Z,26.01
2023-06-25T10:56:32.375Z,25.95
2023-06-25T11:00:06.710Z,25.85
2023-06-25T11:03:47.689Z,25.79
2023-06-25T11:07:39.240Z,25.76
2023-06-25T11:11:27.849Z,25.66
2023-06-25T11:15:16.192Z,25.54
2023-06-25T11:19:04.756Z,25.44
2023-06-25T11:22:46.855Z,25.36
2023-06-25T11:26:35.330Z,25.27
2023-06-25T11:30:06.896Z,25.18
2023-06-25T11:33:29.803Z,25.07
2023-06-25T11:37:09.739Z,24.94
2023-06-25T11:41:04.289Z,24.81
2023-06-25T11:44:46.800Z,24.70
2023-06-25T11:48:35.515Z,24.61
2023-06-25T11:52:24.178Z,24.55
2023-06-25T11:56:12.654Z,24.53
2023-06-25T12:00:02.155Z,24.54
2023-06-25T12:03:49.797Z,24.62
2023-06-25T12:07:03.735Z,24.60
2023-06-25T12:10:52.627Z,24.48
2023-06-25T12:14:41.060Z,24.26
2023-06-25T12:18:28.782Z,23.99
2023-06-25T12:22:17.376Z,23.72
2023-06-25T12:25:47.579Z,23.54
2023-06-25T12:29:36.070Z,23.37
2023-06-25T12:33:23.069Z,23.24
2023-06-25T12:37:11.753Z,23.14
2023-06-25T12:40:58.515Z,23.05
2023-06-25T12:44:48.443Z,22.97
2023-06-25T12:48:29.444Z,22.90
2023-06-25T12:52:17.883Z,22.84
2023-06-25T12:56:05.508Z,22.76
2023-06-25T12:59:51.160Z,22.66
2023-06-25T13:03:39.912Z,22.50
2023-06-25T13:07:31.379Z,22.35
2023-06-25T13:10:48.100Z,22.30
2023-06-25T13:14:28.506Z,22.24
2023-06-25T13:18:17.162Z,22.15
2023-06-25T13:21:58.307Z,22.13
2023-06-25T13:25:46.781Z,22.13
2023-06-25T13:29:35.225Z,22.21
2023-06-25T13:33:23.689Z,22.31
2023-06-25T13:37:05.252Z,22.43
2023-06-25T13:40:54.132Z,22.58
2023-06-25T13:44:42.640Z,22.70
2023-06-25T13:48:24.871Z,22.79
2023-06-25T13:52:06.213Z,22.86
2023-06-25T13:55:55.039Z,22.91
2023-06-25T13:59:43.477Z,23.06
2023-06-25T14:03:32.123Z,23.33
2023-06-25T14:07:23.803Z,23.63
2023-06-25T14:11:12.866Z,24.03
2023-06-25T14:15:00.136Z,24.78
2023-06-25T14:18:49.065Z,25.22
2023-06-25T14:22:26.561Z,25.20
2023-06-25T14:26:13.877Z,25.06
2023-06-25T14:30:02.478Z,24.89
2023-06-25T14:33:51.993Z,24.67
2023-06-25T14:37:40.462Z,24.57
2023-06-25T14:41:22.385Z,24.51
2023-06-25T14:45:10.902Z,24.39
2023-06-25T14:48:59.359Z,24.29
2023-06-25T14:52:47.819Z,24.17
2023-06-25T14:57:32.204Z,24.06
2023-06-25T15:00:45.878Z,23.90
2023-06-25T15:04:34.689Z,23.74
2023-06-25T15:08:26.321Z,23.63
2023-06-25T15:12:14.758Z,23.50
2023-06-25T15:16:03.241Z,23.40
2023-06-25T15:19:44.637Z,23.31
2023-06-25T15:23:20.099Z,23.24
2023-06-25T15:27:08.540Z,23.22
2023-06-25T15:30:56.903Z,23.21
2023-06-25T15:34:44.069Z,23.22
2023-06-25T15:38:19.242Z,23.23
2023-06-25T15:42:06.774Z,23.22
2023-06-25T15:45:54.232Z,23.19
2023-06-25T15:49:33.088Z,23.14
2023-06-25T15:53:20.441Z,23.09
2023-06-25T15:57:11.681Z,23.10
2023-06-25T16:00:53.878Z,23.08
2023-06-25T16:04:43.236Z,23.08
2023-06-25T16:08:19.459Z,23.04
2023-06-25T16:12:08.246Z,23.01
2023-06-25T16:15:42.184Z,22.97
2023-06-25T16:19:39.465Z,22.92
2023-06-25T16:23:07.885Z,22.87
2023-06-25T16:26:56.725Z,22.82
2023-06-25T16:30:45.757Z,22.76
2023-06-25T16:34:28.080Z,22.70
2023-06-25T16:38:16.625Z,22.67
2023-06-25T16:41:58.074Z,22.62
2023-06-25T16:45:46.658Z,22.54
2023-06-25T16:49:34.838Z,22.45
2023-06-25T16:53:23.269Z,22.42
2023-06-25T16:57:11.855Z,22.34
2023-06-25T17:01:00.318Z,22.25
2023-06-25T17:04:31.406Z,22.14
2023-06-25T17:08:08.985Z,22.04
2023-06-25T17:11:47.420Z,21.94
2023-06-25T17:15:36.378Z,21.80
2023-06-25T17:19:18.391Z,21.69
2023-06-25T17:23:06.872Z,21.65
2023-06-25T17:26:55.482Z,21.60
2023-06-25T17:30:44.040Z,21.55
2023-06-25T17:34:32.520Z,21.46
2023-06-25T17:38:13.790Z,21.39
2023-06-25T17:42:02.239Z,21.33
2023-06-25T17:44:39.685Z,21.33
2023-06-25T17:48:00.528Z,21.35
2023-06-25T17:51:01.603Z,21.41
2023-06-25T17:53:36.664Z,21.45
2023-06-25T17:56:58.305Z,21.48
2023-06-25T17:59:56.683Z,21.47
2023-06-25T18:03:10.641Z,21.44
2023-06-25T18:06:15.382Z,21.42
2023-06-25T18:09:36.907Z,21.37
2023-06-25T18:12:46.954Z,21.35
2023-06-25T18:16:08.507Z,21.34
2023-06-25T18:19:38.008Z,21.32
2023-06-25T18:23:06.979Z,21.28
2023-06-25T18:26:18.858Z,21.22
2023-06-25T18:29:17.662Z,21.21
2023-06-25T18:32:46.043Z,21.21
2023-06-25T18:36:35.777Z,21.21
2023-06-25T18:40:27.165Z,21.19
2023-06-25T18:44:15.795Z,21.14
2023-06-25T18:48:06.148Z,21.11
2023-06-25T18:51:54.639Z,21.07
2023-06-25T18:55:43.128Z,21.03
2023-06-25T18:59:31.752Z,21.02
2023-06-25T19:03:20.330Z,20.99
2023-06-25T19:07:01.611Z,20.96
2023-06-25T19:10:50.871Z,20.95
2023-06-25T19:14:39.463Z,20.96
2023-06-25T19:18:31.098Z,20.95
2023-06-25T19:22:08.725Z,20.96
2023-06-25T19:25:57.221Z,20.97
2023-06-25T19:29:46.088Z,20.95
2023-06-25T19:33:35.188Z,20.93
2023-06-25T19:37:23.754Z,20.85
2023-06-25T19:41:12.831Z,20.76
2023-06-25T19:45:01.647Z,20.70
2023-06-25T19:48:52.322Z,20.66
2023-06-25T19:52:41.520Z,20.65
2023-06-25T19:56:29.961Z,20.65
2023-06-25T20:00:18.901Z,20.62
2023-06-25T20:04:08.135Z,20.62
2023-06-25T20:07:56.639Z,20.61
2023-06-25T20:11:38.232Z,20.57
2023-06-25T20:15:16.802Z,20.53
2023-06-25T20:19:05.191Z,20.52
2023-06-25T20:22:53.698Z,20.51
2023-06-25T20:26:35.624Z,20.43
2023-06-25T20:30:23.918Z,20.33
2023-06-25T20:34:11.761Z,20.30
2023-06-25T20:38:00.314Z,20.29
2023-06-25T20:41:38.152Z,20.29
2023-06-25T20:45:26.615Z,20.30
2023-06-25T20:49:15.264Z,20.29
2023-06-25T20:52:57.261Z,20.26
2023-06-25T20:56:45.657Z,20.21
2023-06-25T21:00:35.414Z,20.14
2023-06-25T21:04:24.808Z,20.08
2023-06-25T21:08:13.306Z,20.07
2023-06-25T21:12:47.767Z,20.08
2023-06-25T21:16:11.290Z,20.08
2023-06-25T21:19:59.695Z,20.04
2023-06-25T21:23:48.106Z,20.03
2023-06-25T21:27:36.547Z,20.04
2023-06-25T21:31:15.786Z,20.04
2023-06-25T21:35:04.311Z,20.04
2023-06-25T21:38:52.791Z,20.03
2023-06-25T21:42:41.285Z,20.00
2023-06-25T21:46:30.867Z,19.96
2023-06-25T21:50:19.066Z,19.95
2023-06-25T21:54:07.577Z,19.96
2023-06-25T21:57:55.983Z,19.93
2023-06-25T22:01:44.450Z,19.90
2023-06-25T22:05:32.891Z,19.89
2023-06-25T22:09:21.343Z,19.88
2023-06-25T22:13:09.779Z,19.87
2023-06-25T22:16:58.283Z,19.82
2023-06-25T22:20:49.577Z,19.79
2023-06-25T22:24:38.032Z,19.75
2023-06-25T22:28:26.454Z,19.70
2023-06-25T22:32:14.901Z,19.65
2023-06-25T22:35:56.520Z,19.60
2023-06-25T22:39:44.999Z,19.55
2023-06-25T22:43:33.421Z,19.52
2023-06-25T22:47:21.557Z,19.49
2023-06-25T22:50:56.407Z,19.47
2023-06-25T22:54:45.762Z,19.42
2023-06-25T22:58:35.114Z,19.36
2023-06-25T23:02:23.753Z,19.34
2023-06-25T23:06:12.192Z,19.33
2023-06-25T23:10:00.638Z,19.31
2023-06-25T23:13:49.050Z,19.27
2023-06-25T23:17:37.635Z,19.23
2023-06-25T23:21:26.159Z,19.25
2023-06-25T23:25:26.807Z,19.26
2023-06-25T23:29:15.224Z,19.25
2023-06-25T23:33:03.840Z,19.23
2023-06-25T23:36:52.392Z,19.22
2023-06-25T23:40:40.997Z,19.18
2023-06-25T23:44:29.633Z,19.17
2023-06-25T23:48:18.346Z,19.18
2023-06-25T23:52:06.812Z,19.19
2023-06-25T23:55:55.278Z,19.20
2023-06-25T23:59:42.894Z,19.20
